sensor_id;sensor_type;location;lat;lon;timestamp;temperature;humidity
11812;DHT22;5963;50.184;9.162;2023-02-28T00:03:07;-1.60;99.90
11812;DHT22;5963;50.184;9.162;2023-02-28T00:05:38;-1.70;99.90
11812;DHT22;5963;50.184;9.162;2023-02-28T00:08:08;-1.60;99.90
11812;DHT22;5963;50.184;9.162;2023-02-28T00:10:39;-1.60;99.90
11812;DHT22;5963;50.184;9.162;2023-02-28T00:13:08;-1.60;99.90
11812;DHT22;5963;50.184;9.162;2023-02-28T00:15:39;-1.70;99.90
11812;DHT22;5963;50.184;9.162;2023-02-28T00:18:09;-1.70;99.90
11812;DHT22;5963;50.184;9.162;2023-02-28T00:20:41;-1.70;99.90
11812;DHT22;5963;50.184;9.162;2023-02-28T00:23:11;-1.70;99.90
11812;DHT22;5963;50.184;9.162;2023-02-28T00:25:41;-1.70;99.90
11812;DHT22;5963;50.184;9.162;2023-02-28T00:28:10;-1.70;99.90
11812;DHT22;5963;50.184;9.162;2023-02-28T00:30:40;-1.80;99.90
11812;DHT22;5963;50.184;9.162;2023-02-28T00:33:10;-1.90;99.90
11812;DHT22;5963;50.184;9.162;2023-02-28T00:35:42;-1.90;99.90
11812;DHT22;5963;50.184;9.162;2023-02-28T00:38:14;-1.80;99.90
11812;DHT22;5963;50.184;9.162;2023-02-28T00:40:44;-1.90;99.90
11812;DHT22;5963;50.184;9.162;2023-02-28T00:43:15;-1.80;99.90
11812;DHT22;5963;50.184;9.162;2023-02-28T00:45:45;-1.90;99.90
11812;DHT22;5963;50.184;9.162;2023-02-28T00:48:15;-1.90;99.90
11812;DHT22;5963;50.184;9.162;2023-02-28T00:50:46;-1.90;99.90
11812;DHT22;5963;50.184;9.162;2023-02-28T00:53:17;-2.00;99.90
11812;DHT22;5963;50.184;9.162;2023-02-28T00:55:48;-1.90;99.90
11812;DHT22;5963;50.184;9.162;2023-02-28T00:58:17;-1.90;99.90
11812;DHT22;5963;50.184;9.162;2023-02-28T01:00:47;-1.90;99.90
11812;DHT22;5963;50.184;9.162;2023-02-28T01:03:18;-1.90;99.90
11812;DHT22;5963;50.184;9.162;2023-02-28T01:05:50;-1.90;99.90
11812;DHT22;5963;50.184;9.162;2023-02-28T01:08:22;-1.90;99.90
11812;DHT22;5963;50.184;9.162;2023-02-28T01:10:52;-1.90;99.90
11812;DHT22;5963;50.184;9.162;2023-02-28T01:13:22;-1.90;99.90
11812;DHT22;5963;50.184;9.162;2023-02-28T01:15:56;-1.90;99.90
11812;DHT22;5963;50.184;9.162;2023-02-28T01:18:27;-2.00;99.90
11812;DHT22;5963;50.184;9.162;2023-02-28T01:20:58;-2.00;99.90
11812;DHT22;5963;50.184;9.162;2023-02-28T01:23:32;-1.90;99.90
11812;DHT22;5963;50.184;9.162;2023-02-28T01:26:04;-1.90;99.90
11812;DHT22;5963;50.184;9.162;2023-02-28T01:28:34;-2.00;99.90
11812;DHT22;5963;50.184;9.162;2023-02-28T01:31:07;-2.00;99.90
11812;DHT22;5963;50.184;9.162;2023-02-28T01:33:38;-2.00;99.90
11812;DHT22;5963;50.184;9.162;2023-02-28T01:36:13;-2.00;99.90
11812;DHT22;5963;50.184;9.162;2023-02-28T01:38:43;-2.00;99.90
11812;DHT22;5963;50.184;9.162;2023-02-28T01:41:18;-2.10;99.90
11812;DHT22;5963;50.184;9.162;2023-02-28T01:43:56;-2.00;99.90
11812;DHT22;5963;50.184;9.162;2023-02-28T01:46:26;-2.00;99.90
11812;DHT22;5963;50.184;9.162;2023-02-28T01:48:58;-2.00;99.90
11812;DHT22;5963;50.184;9.162;2023-02-28T01:51:33;-2.00;99.90
11812;DHT22;5963;50.184;9.162;2023-02-28T01:54:05;-2.00;99.90
11812;DHT22;5963;50.184;9.162;2023-02-28T01:56:46;-2.00;99.90
11812;DHT22;5963;50.184;9.162;2023-02-28T01:59:29;-2.00;99.90
11812;DHT22;5963;50.184;9.162;2023-02-28T02:02:00;-2.00;99.90
11812;DHT22;5963;50.184;9.162;2023-02-28T02:04:36;-2.00;99.90
11812;DHT22;5963;50.184;9.162;2023-02-28T02:07:09;-1.90;99.90
11812;DHT22;5963;50.184;9.162;2023-02-28T02:09:39;-2.00;99.90
11812;DHT22;5963;50.184;9.162;2023-02-28T02:12:16;-2.00;99.90
11812;DHT22;5963;50.184;9.162;2023-02-28T02:15:02;-2.10;99.90
11812;DHT22;5963;50.184;9.162;2023-02-28T02:17:38;-2.20;99.90
11812;DHT22;5963;50.184;9.162;2023-02-28T02:32:48;-2.30;99.90
11812;DHT22;5963;50.184;9.162;2023-02-28T02:35:26;-2.20;99.90
11812;DHT22;5963;50.184;9.162;2023-02-28T02:38:03;-2.20;99.90
11812;DHT22;5963;50.184;9.162;2023-02-28T02:40:37;-2.20;99.90
11812;DHT22;5963;50.184;9.162;2023-02-28T02:43:11;-2.20;99.90
11812;DHT22;5963;50.184;9.162;2023-02-28T02:45:47;-2.20;99.90
11812;DHT22;5963;50.184;9.162;2023-02-28T02:48:23;-2.30;99.90
11812;DHT22;5963;50.184;9.162;2023-02-28T02:50:58;-2.30;99.90
11812;DHT22;5963;50.184;9.162;2023-02-28T02:53:32;-2.30;99.90
11812;DHT22;5963;50.184;9.162;2023-02-28T02:56:04;-2.30;99.90
11812;DHT22;5963;50.184;9.162;2023-02-28T02:58:40;-2.30;99.90
11812;DHT22;5963;50.184;9.162;2023-02-28T03:01:14;-2.30;99.90
11812;DHT22;5963;50.184;9.162;2023-02-28T03:03:45;-2.30;99.90
11812;DHT22;5963;50.184;9.162;2023-02-28T03:06:17;-2.40;99.90
11812;DHT22;5963;50.184;9.162;2023-02-28T03:08:58;-2.40;99.90
11812;DHT22;5963;50.184;9.162;2023-02-28T03:11:29;-2.50;99.90
11812;DHT22;5963;50.184;9.162;2023-02-28T03:17:29;-2.50;99.90
11812;DHT22;5963;50.184;9.162;2023-02-28T03:20:07;-2.50;99.90
11812;DHT22;5963;50.184;9.162;2023-02-28T03:22:47;-2.50;99.90
11812;DHT22;5963;50.184;9.162;2023-02-28T03:25:23;-2.50;99.90
11812;DHT22;5963;50.184;9.162;2023-02-28T03:28:03;-2.50;99.90
11812;DHT22;5963;50.184;9.162;2023-02-28T03:30:38;-2.50;99.90
11812;DHT22;5963;50.184;9.162;2023-02-28T03:33:13;-2.50;99.90
11812;DHT22;5963;50.184;9.162;2023-02-28T03:35:45;-2.60;99.90
11812;DHT22;5963;50.184;9.162;2023-02-28T03:38:22;-2.50;99.90
11812;DHT22;5963;50.184;9.162;2023-02-28T03:41:01;-2.50;99.90
11812;DHT22;5963;50.184;9.162;2023-02-28T03:43:36;-2.50;99.90
11812;DHT22;5963;50.184;9.162;2023-02-28T03:46:09;-2.60;99.90
11812;DHT22;5963;50.184;9.162;2023-02-28T03:48:40;-2.60;99.90
11812;DHT22;5963;50.184;9.162;2023-02-28T03:51:13;-2.70;99.90
11812;DHT22;5963;50.184;9.162;2023-02-28T03:53:47;-2.60;99.90
11812;DHT22;5963;50.184;9.162;2023-02-28T03:56:22;-2.50;99.90
11812;DHT22;5963;50.184;9.162;2023-02-28T03:58:57;-2.50;99.90
11812;DHT22;5963;50.184;9.162;2023-02-28T04:01:33;-2.60;99.90
11812;DHT22;5963;50.184;9.162;2023-02-28T04:04:03;-2.60;99.90
11812;DHT22;5963;50.184;9.162;2023-02-28T04:06:34;-2.60;99.90
11812;DHT22;5963;50.184;9.162;2023-02-28T04:09:07;-2.60;99.90
11812;DHT22;5963;50.184;9.162;2023-02-28T04:11:38;-2.50;99.90
11812;DHT22;5963;50.184;9.162;2023-02-28T04:14:09;-2.50;99.90
11812;DHT22;5963;50.184;9.162;2023-02-28T04:16:40;-2.50;99.90
11812;DHT22;5963;50.184;9.162;2023-02-28T04:19:12;-2.40;99.90
11812;DHT22;5963;50.184;9.162;2023-02-28T04:21:43;-2.40;99.90
11812;DHT22;5963;50.184;9.162;2023-02-28T04:24:16;-2.40;99.90
11812;DHT22;5963;50.184;9.162;2023-02-28T04:26:48;-2.40;99.90
11812;DHT22;5963;50.184;9.162;2023-02-28T04:29:21;-2.30;99.90
11812;DHT22;5963;50.184;9.162;2023-02-28T04:31:51;-2.40;99.90
11812;DHT22;5963;50.184;9.162;2023-02-28T04:34:23;-2.40;99.90
11812;DHT22;5963;50.184;9.162;2023-02-28T04:36:55;-2.30;99.90
11812;DHT22;5963;50.184;9.162;2023-02-28T04:39:41;-2.30;99.90
11812;DHT22;5963;50.184;9.162;2023-02-28T04:42:12;-2.30;99.90
11812;DHT22;5963;50.184;9.162;2023-02-28T04:44:42;-2.30;99.90
11812;DHT22;5963;50.184;9.162;2023-02-28T04:47:12;-2.20;99.90
11812;DHT22;5963;50.184;9.162;2023-02-28T04:49:42;-2.20;99.90
11812;DHT22;5963;50.184;9.162;2023-02-28T04:52:12;-2.20;99.90
11812;DHT22;5963;50.184;9.162;2023-02-28T04:54:43;-2.20;99.90
11812;DHT22;5963;50.184;9.162;2023-02-28T04:57:13;-2.20;99.90
11812;DHT22;5963;50.184;9.162;2023-02-28T04:59:43;-2.20;99.90
11812;DHT22;5963;50.184;9.162;2023-02-28T05:02:12;-2.20;99.90
11812;DHT22;5963;50.184;9.162;2023-02-28T05:04:42;-2.20;99.90
11812;DHT22;5963;50.184;9.162;2023-02-28T05:07:12;-2.20;99.90
11812;DHT22;5963;50.184;9.162;2023-02-28T05:09:43;-2.20;99.90
11812;DHT22;5963;50.184;9.162;2023-02-28T05:12:13;-2.30;99.90
11812;DHT22;5963;50.184;9.162;2023-02-28T05:14:44;-2.40;99.90
11812;DHT22;5963;50.184;9.162;2023-02-28T05:17:14;-2.50;99.90
11812;DHT22;5963;50.184;9.162;2023-02-28T05:19:43;-2.50;99.90
11812;DHT22;5963;50.184;9.162;2023-02-28T05:22:15;-2.60;99.90
11812;DHT22;5963;50.184;9.162;2023-02-28T05:24:47;-2.60;99.90
11812;DHT22;5963;50.184;9.162;2023-02-28T05:27:16;-2.60;99.90
11812;DHT22;5963;50.184;9.162;2023-02-28T05:29:46;-2.70;99.90
11812;DHT22;5963;50.184;9.162;2023-02-28T05:32:16;-2.60;99.90
11812;DHT22;5963;50.184;9.162;2023-02-28T05:34:46;-2.70;99.90
11812;DHT22;5963;50.184;9.162;2023-02-28T05:37:17;-2.70;99.90
11812;DHT22;5963;50.184;9.162;2023-02-28T05:39:48;-2.70;99.90
11812;DHT22;5963;50.184;9.162;2023-02-28T05:42:18;-2.80;99.90
11812;DHT22;5963;50.184;9.162;2023-02-28T05:44:48;-2.80;99.90
11812;DHT22;5963;50.184;9.162;2023-02-28T05:47:18;-2.80;99.90
11812;DHT22;5963;50.184;9.162;2023-02-28T05:49:47;-2.80;99.90
11812;DHT22;5963;50.184;9.162;2023-02-28T05:52:17;-2.80;99.90
11812;DHT22;5963;50.184;9.162;2023-02-28T05:54:49;-2.90;99.90
11812;DHT22;5963;50.184;9.162;2023-02-28T05:57:19;-2.90;99.90
11812;DHT22;5963;50.184;9.162;2023-02-28T05:59:52;-2.80;99.90
11812;DHT22;5963;50.184;9.162;2023-02-28T06:02:22;-2.90;99.90
11812;DHT22;5963;50.184;9.162;2023-02-28T06:04:52;-2.90;99.90
11812;DHT22;5963;50.184;9.162;2023-02-28T06:07:24;-2.90;99.90
11812;DHT22;5963;50.184;9.162;2023-02-28T06:09:55;-2.90;99.90
11812;DHT22;5963;50.184;9.162;2023-02-28T06:12:25;-2.80;99.90
11812;DHT22;5963;50.184;9.162;2023-02-28T06:14:55;-2.90;99.90
11812;DHT22;5963;50.184;9.162;2023-02-28T06:17:24;-2.70;99.90
11812;DHT22;5963;50.184;9.162;2023-02-28T06:19:54;-2.70;99.90
11812;DHT22;5963;50.184;9.162;2023-02-28T06:22:25;-2.70;99.90
11812;DHT22;5963;50.184;9.162;2023-02-28T06:24:56;-2.70;99.90
11812;DHT22;5963;50.184;9.162;2023-02-28T06:27:26;-2.80;99.90
11812;DHT22;5963;50.184;9.162;2023-02-28T06:29:56;-2.80;99.90
11812;DHT22;5963;50.184;9.162;2023-02-28T06:32:26;-2.80;99.90
11812;DHT22;5963;50.184;9.162;2023-02-28T06:34:56;-2.80;99.90
11812;DHT22;5963;50.184;9.162;2023-02-28T06:37:26;-2.80;99.90
11812;DHT22;5963;50.184;9.162;2023-02-28T06:39:57;-2.80;99.90
11812;DHT22;5963;50.184;9.162;2023-02-28T06:42:27;-2.80;99.90
11812;DHT22;5963;50.184;9.162;2023-02-28T06:44:59;-2.90;99.90
11812;DHT22;5963;50.184;9.162;2023-02-28T06:47:32;-2.80;99.90
11812;DHT22;5963;50.184;9.162;2023-02-28T06:50:03;-2.80;99.90
11812;DHT22;5963;50.184;9.162;2023-02-28T06:52:33;-2.80;99.90
11812;DHT22;5963;50.184;9.162;2023-02-28T06:55:07;-2.70;99.90
11812;DHT22;5963;50.184;9.162;2023-02-28T06:57:37;-2.70;99.90
11812;DHT22;5963;50.184;9.162;2023-02-28T07:00:10;-2.50;99.90
11812;DHT22;5963;50.184;9.162;2023-02-28T07:02:40;-2.40;99.90
11812;DHT22;5963;50.184;9.162;2023-02-28T07:05:10;-2.30;99.90
11812;DHT22;5963;50.184;9.162;2023-02-28T07:07:39;-2.30;99.90
11812;DHT22;5963;50.184;9.162;2023-02-28T07:10:13;-2.10;99.90
11812;DHT22;5963;50.184;9.162;2023-02-28T07:12:47;-2.00;99.90
11812;DHT22;5963;50.184;9.162;2023-02-28T07:15:17;-1.70;99.90
11812;DHT22;5963;50.184;9.162;2023-02-28T07:17:47;-1.50;99.90
11812;DHT22;5963;50.184;9.162;2023-02-28T07:20:18;-1.30;99.90
11812;DHT22;5963;50.184;9.162;2023-02-28T07:22:47;-1.20;99.90
11812;DHT22;5963;50.184;9.162;2023-02-28T07:25:25;-1.00;99.90
11812;DHT22;5963;50.184;9.162;2023-02-28T07:27:56;-0.80;99.90
11812;DHT22;5963;50.184;9.162;2023-02-28T07:30:27;-0.70;99.90
11812;DHT22;5963;50.184;9.162;2023-02-28T07:32:57;-0.70;99.90
11812;DHT22;5963;50.184;9.162;2023-02-28T07:35:27;-0.50;99.90
11812;DHT22;5963;50.184;9.162;2023-02-28T07:37:56;-0.20;99.90
11812;DHT22;5963;50.184;9.162;2023-02-28T07:40:30;-0.20;99.90
11812;DHT22;5963;50.184;9.162;2023-02-28T07:43:01;-0.20;99.90
11812;DHT22;5963;50.184;9.162;2023-02-28T07:45:32;0.00;99.90
11812;DHT22;5963;50.184;9.162;2023-02-28T07:48:03;0.10;99.90
11812;DHT22;5963;50.184;9.162;2023-02-28T07:50:33;0.00;99.90
11812;DHT22;5963;50.184;9.162;2023-02-28T07:53:03;0.00;99.90
11812;DHT22;5963;50.184;9.162;2023-02-28T07:55:35;0.00;99.90
11812;DHT22;5963;50.184;9.162;2023-02-28T07:58:04;0.10;99.90
11812;DHT22;5963;50.184;9.162;2023-02-28T08:00:34;0.20;99.90
11812;DHT22;5963;50.184;9.162;2023-02-28T08:03:04;0.30;99.90
11812;DHT22;5963;50.184;9.162;2023-02-28T08:05:37;0.30;99.90
11812;DHT22;5963;50.184;9.162;2023-02-28T08:08:07;0.40;99.90
11812;DHT22;5963;50.184;9.162;2023-02-28T08:10:38;0.50;99.90
11812;DHT22;5963;50.184;9.162;2023-02-28T08:13:09;0.40;99.90
11812;DHT22;5963;50.184;9.162;2023-02-28T08:15:39;0.50;99.90
11812;DHT22;5963;50.184;9.162;2023-02-28T08:18:16;0.50;99.90
11812;DHT22;5963;50.184;9.162;2023-02-28T08:20:45;0.60;99.90
11812;DHT22;5963;50.184;9.162;2023-02-28T08:23:15;0.70;99.90
11812;DHT22;5963;50.184;9.162;2023-02-28T08:25:52;0.90;99.90
11812;DHT22;5963;50.184;9.162;2023-02-28T08:28:21;0.90;99.90
11812;DHT22;5963;50.184;9.162;2023-02-28T08:30:57;1.10;99.90
11812;DHT22;5963;50.184;9.162;2023-02-28T08:33:27;1.10;99.90
11812;DHT22;5963;50.184;9.162;2023-02-28T08:35:57;1.20;99.90
11812;DHT22;5963;50.184;9.162;2023-02-28T08:38:27;1.40;99.90
11812;DHT22;5963;50.184;9.162;2023-02-28T08:41:04;1.40;99.90
11812;DHT22;5963;50.184;9.162;2023-02-28T08:43:35;1.60;99.90
11812;DHT22;5963;50.184;9.162;2023-02-28T08:46:06;1.70;99.90
11812;DHT22;5963;50.184;9.162;2023-02-28T08:48:37;1.80;99.90
11812;DHT22;5963;50.184;9.162;2023-02-28T08:51:09;1.90;99.90
11812;DHT22;5963;50.184;9.162;2023-02-28T08:53:39;1.80;99.90
11812;DHT22;5963;50.184;9.162;2023-02-28T08:56:12;2.00;99.90
11812;DHT22;5963;50.184;9.162;2023-02-28T08:58:42;2.20;99.90
11812;DHT22;5963;50.184;9.162;2023-02-28T09:01:15;2.40;99.90
11812;DHT22;5963;50.184;9.162;2023-02-28T09:03:45;2.40;99.90
11812;DHT22;5963;50.184;9.162;2023-02-28T09:06:17;2.30;99.90
11812;DHT22;5963;50.184;9.162;2023-02-28T09:08:47;2.30;99.90
11812;DHT22;5963;50.184;9.162;2023-02-28T09:11:19;2.30;99.90
11812;DHT22;5963;50.184;9.162;2023-02-28T09:13:49;2.40;99.90
11812;DHT22;5963;50.184;9.162;2023-02-28T09:16:20;2.60;99.90
11812;DHT22;5963;50.184;9.162;2023-02-28T09:18:49;2.60;99.90
11812;DHT22;5963;50.184;9.162;2023-02-28T09:21:20;2.60;99.90
11812;DHT22;5963;50.184;9.162;2023-02-28T09:23:51;2.50;99.90
11812;DHT22;5963;50.184;9.162;2023-02-28T09:26:24;2.60;99.90
11812;DHT22;5963;50.184;9.162;2023-02-28T09:29:02;2.70;99.90
11812;DHT22;5963;50.184;9.162;2023-02-28T09:31:32;2.80;99.90
11812;DHT22;5963;50.184;9.162;2023-02-28T09:34:03;3.00;99.90
11812;DHT22;5963;50.184;9.162;2023-02-28T09:36:33;3.20;99.90
11812;DHT22;5963;50.184;9.162;2023-02-28T09:39:13;3.30;99.90
11812;DHT22;5963;50.184;9.162;2023-02-28T09:41:47;3.20;99.90
11812;DHT22;5963;50.184;9.162;2023-02-28T09:44:22;3.40;99.90
11812;DHT22;5963;50.184;9.162;2023-02-28T09:46:55;3.40;99.90
11812;DHT22;5963;50.184;9.162;2023-02-28T09:49:34;3.40;99.90
11812;DHT22;5963;50.184;9.162;2023-02-28T09:52:12;3.20;99.90
11812;DHT22;5963;50.184;9.162;2023-02-28T09:54:43;3.20;99.90
11812;DHT22;5963;50.184;9.162;2023-02-28T09:57:21;3.20;99.90
11812;DHT22;5963;50.184;9.162;2023-02-28T10:00:04;3.10;99.90
11812;DHT22;5963;50.184;9.162;2023-02-28T10:02:50;3.30;99.90
11812;DHT22;5963;50.184;9.162;2023-02-28T10:05:24;3.20;99.90
11812;DHT22;5963;50.184;9.162;2023-02-28T10:08:03;3.50;99.90
11812;DHT22;5963;50.184;9.162;2023-02-28T10:10:39;3.90;99.90
11812;DHT22;5963;50.184;9.162;2023-02-28T10:13:17;4.10;99.90
11812;DHT22;5963;50.184;9.162;2023-02-28T10:15:52;4.10;99.90
11812;DHT22;5963;50.184;9.162;2023-02-28T10:18:24;4.40;99.90
11812;DHT22;5963;50.184;9.162;2023-02-28T10:20:55;4.30;99.90
11812;DHT22;5963;50.184;9.162;2023-02-28T10:23:28;4.10;99.90
11812;DHT22;5963;50.184;9.162;2023-02-28T10:26:00;4.40;99.90
11812;DHT22;5963;50.184;9.162;2023-02-28T10:28:32;4.20;99.90
11812;DHT22;5963;50.184;9.162;2023-02-28T10:31:02;4.00;99.90
11812;DHT22;5963;50.184;9.162;2023-02-28T10:33:34;4.20;99.90
11812;DHT22;5963;50.184;9.162;2023-02-28T10:36:05;4.20;99.90
11812;DHT22;5963;50.184;9.162;2023-02-28T10:38:39;4.50;99.90
11812;DHT22;5963;50.184;9.162;2023-02-28T10:41:10;4.40;99.90
11812;DHT22;5963;50.184;9.162;2023-02-28T10:43:43;4.00;99.90
11812;DHT22;5963;50.184;9.162;2023-02-28T10:46:17;3.60;99.90
11812;DHT22;5963;50.184;9.162;2023-02-28T10:49:04;3.40;99.90
11812;DHT22;5963;50.184;9.162;2023-02-28T10:51:39;3.00;99.90
11812;DHT22;5963;50.184;9.162;2023-02-28T10:54:18;2.80;99.90
11812;DHT22;5963;50.184;9.162;2023-02-28T10:57:07;3.00;99.90
11812;DHT22;5963;50.184;9.162;2023-02-28T10:59:39;3.10;99.90
11812;DHT22;5963;50.184;9.162;2023-02-28T11:02:32;3.00;99.90
11812;DHT22;5963;50.184;9.162;2023-02-28T11:05:26;3.20;99.90
11812;DHT22;5963;50.184;9.162;2023-02-28T11:07:59;3.70;99.90
11812;DHT22;5963;50.184;9.162;2023-02-28T11:10:34;3.60;99.90
11812;DHT22;5963;50.184;9.162;2023-02-28T11:13:03;3.90;99.90
11812;DHT22;5963;50.184;9.162;2023-02-28T11:15:37;4.30;99.90
11812;DHT22;5963;50.184;9.162;2023-02-28T11:18:19;4.40;99.90
11812;DHT22;5963;50.184;9.162;2023-02-28T11:20:52;4.60;99.90
11812;DHT22;5963;50.184;9.162;2023-02-28T11:23:23;4.70;99.90
11812;DHT22;5963;50.184;9.162;2023-02-28T11:25:56;4.90;99.90
11812;DHT22;5963;50.184;9.162;2023-02-28T11:28:30;5.20;99.90
11812;DHT22;5963;50.184;9.162;2023-02-28T11:31:09;5.10;99.80
11812;DHT22;5963;50.184;9.162;2023-02-28T11:33:46;4.80;99.90
11812;DHT22;5963;50.184;9.162;2023-02-28T11:36:21;5.00;99.90
11812;DHT22;5963;50.184;9.162;2023-02-28T11:38:57;5.20;99.40
11812;DHT22;5963;50.184;9.162;2023-02-28T11:42:02;4.70;99.40
11812;DHT22;5963;50.184;9.162;2023-02-28T11:44:47;4.80;99.60
11812;DHT22;5963;50.184;9.162;2023-02-28T11:47:29;4.80;99.50
11812;DHT22;5963;50.184;9.162;2023-02-28T11:50:12;4.80;99.40
11812;DHT22;5963;50.184;9.162;2023-02-28T11:52:51;5.00;99.90
11812;DHT22;5963;50.184;9.162;2023-02-28T11:55:25;4.90;99.90
11812;DHT22;5963;50.184;9.162;2023-02-28T11:58:11;4.70;99.90
11812;DHT22;5963;50.184;9.162;2023-02-28T12:00:54;5.20;99.90
11812;DHT22;5963;50.184;9.162;2023-02-28T12:03:33;4.70;99.90
11812;DHT22;5963;50.184;9.162;2023-02-28T12:06:16;4.20;99.90
11812;DHT22;5963;50.184;9.162;2023-02-28T12:08:56;3.90;99.90
11812;DHT22;5963;50.184;9.162;2023-02-28T12:11:34;4.20;99.90
11812;DHT22;5963;50.184;9.162;2023-02-28T12:17:13;4.10;99.90
11812;DHT22;5963;50.184;9.162;2023-02-28T12:19:54;4.20;99.90
11812;DHT22;5963;50.184;9.162;2023-02-28T12:22:32;4.50;99.90
11812;DHT22;5963;50.184;9.162;2023-02-28T12:25:26;4.90;99.90
11812;DHT22;5963;50.184;9.162;2023-02-28T12:28:08;5.10;99.70
11812;DHT22;5963;50.184;9.162;2023-02-28T12:30:43;5.20;99.50
11812;DHT22;5963;50.184;9.162;2023-02-28T12:33:18;5.30;98.70
11812;DHT22;5963;50.184;9.162;2023-02-28T12:35:53;5.10;99.20
11812;DHT22;5963;50.184;9.162;2023-02-28T12:38:27;5.10;99.90
11812;DHT22;5963;50.184;9.162;2023-02-28T12:41:01;5.10;99.20
11812;DHT22;5963;50.184;9.162;2023-02-28T12:43:37;5.00;99.10
11812;DHT22;5963;50.184;9.162;2023-02-28T12:46:17;4.70;99.10
11812;DHT22;5963;50.184;9.162;2023-02-28T12:48:52;4.90;99.50
11812;DHT22;5963;50.184;9.162;2023-02-28T12:51:26;4.70;99.90
11812;DHT22;5963;50.184;9.162;2023-02-28T12:54:02;4.80;99.90
11812;DHT22;5963;50.184;9.162;2023-02-28T12:56:38;4.80;99.60
11812;DHT22;5963;50.184;9.162;2023-02-28T12:59:14;4.90;99.90
11812;DHT22;5963;50.184;9.162;2023-02-28T13:02:01;5.00;99.70
11812;DHT22;5963;50.184;9.162;2023-02-28T13:08:07;5.00;99.10
11812;DHT22;5963;50.184;9.162;2023-02-28T13:10:44;5.10;99.80
11812;DHT22;5963;50.184;9.162;2023-02-28T13:13:20;5.10;99.20
11812;DHT22;5963;50.184;9.162;2023-02-28T13:16:07;5.00;98.60
11812;DHT22;5963;50.184;9.162;2023-02-28T13:18:39;5.20;99.10
11812;DHT22;5963;50.184;9.162;2023-02-28T13:21:22;5.10;99.30
11812;DHT22;5963;50.184;9.162;2023-02-28T13:24:01;5.10;99.20
11812;DHT22;5963;50.184;9.162;2023-02-28T13:33:28;4.90;99.50
11812;DHT22;5963;50.184;9.162;2023-02-28T13:38:59;4.90;99.80
11812;DHT22;5963;50.184;9.162;2023-02-28T13:41:48;4.90;99.60
11812;DHT22;5963;50.184;9.162;2023-02-28T13:44:21;4.90;99.00
11812;DHT22;5963;50.184;9.162;2023-02-28T13:47:23;4.90;99.70
11812;DHT22;5963;50.184;9.162;2023-02-28T13:49:56;5.10;99.20
11812;DHT22;5963;50.184;9.162;2023-02-28T13:52:48;5.10;99.10
11812;DHT22;5963;50.184;9.162;2023-02-28T13:55:27;5.20;99.80
11812;DHT22;5963;50.184;9.162;2023-02-28T13:58:08;5.20;99.10
11812;DHT22;5963;50.184;9.162;2023-02-28T14:00:59;5.20;99.60
11812;DHT22;5963;50.184;9.162;2023-02-28T14:03:50;4.90;99.60
11812;DHT22;5963;50.184;9.162;2023-02-28T14:06:28;4.80;99.90
11812;DHT22;5963;50.184;9.162;2023-02-28T14:09:02;4.80;99.50
11812;DHT22;5963;50.184;9.162;2023-02-28T14:11:37;4.90;99.80
11812;DHT22;5963;50.184;9.162;2023-02-28T14:14:10;5.00;99.70
11812;DHT22;5963;50.184;9.162;2023-02-28T14:16:59;5.10;99.10
11812;DHT22;5963;50.184;9.162;2023-02-28T14:19:32;5.30;99.80
11812;DHT22;5963;50.184;9.162;2023-02-28T14:22:12;5.20;99.40
11812;DHT22;5963;50.184;9.162;2023-02-28T14:24:59;5.20;99.10
11812;DHT22;5963;50.184;9.162;2023-02-28T14:27:40;5.00;99.70
11812;DHT22;5963;50.184;9.162;2023-02-28T14:33:35;5.30;99.50
11812;DHT22;5963;50.184;9.162;2023-02-28T14:36:12;5.20;99.20
11812;DHT22;5963;50.184;9.162;2023-02-28T14:38:47;5.10;99.30
11812;DHT22;5963;50.184;9.162;2023-02-28T14:41:21;5.20;99.60
11812;DHT22;5963;50.184;9.162;2023-02-28T14:43:59;5.00;99.20
11812;DHT22;5963;50.184;9.162;2023-02-28T14:46:37;4.70;99.60
11812;DHT22;5963;50.184;9.162;2023-02-28T14:49:16;4.50;99.90
11812;DHT22;5963;50.184;9.162;2023-02-28T14:51:46;4.60;99.90
11812;DHT22;5963;50.184;9.162;2023-02-28T14:54:22;4.80;99.90
11812;DHT22;5963;50.184;9.162;2023-02-28T14:56:55;4.90;99.90
11812;DHT22;5963;50.184;9.162;2023-02-28T14:59:27;4.90;99.80
11812;DHT22;5963;50.184;9.162;2023-02-28T15:02:19;5.00;99.90
11812;DHT22;5963;50.184;9.162;2023-02-28T15:05:22;4.90;99.80
11812;DHT22;5963;50.184;9.162;2023-02-28T15:08:00;4.90;99.90
11812;DHT22;5963;50.184;9.162;2023-02-28T15:10:30;4.70;99.80
11812;DHT22;5963;50.184;9.162;2023-02-28T15:13:02;4.50;99.90
11812;DHT22;5963;50.184;9.162;2023-02-28T15:15:41;4.70;99.90
11812;DHT22;5963;50.184;9.162;2023-02-28T15:18:33;4.80;99.90
11812;DHT22;5963;50.184;9.162;2023-02-28T15:21:09;4.50;99.90
11812;DHT22;5963;50.184;9.162;2023-02-28T15:23:48;4.40;99.90
11812;DHT22;5963;50.184;9.162;2023-02-28T15:26:22;4.30;99.90
11812;DHT22;5963;50.184;9.162;2023-02-28T15:28:51;4.30;99.90
11812;DHT22;5963;50.184;9.162;2023-02-28T15:31:27;4.30;99.90
11812;DHT22;5963;50.184;9.162;2023-02-28T15:34:14;4.20;99.90
11812;DHT22;5963;50.184;9.162;2023-02-28T15:36:49;4.10;99.90
11812;DHT22;5963;50.184;9.162;2023-02-28T15:39:25;4.00;99.90
11812;DHT22;5963;50.184;9.162;2023-02-28T15:42:11;4.00;99.90
11812;DHT22;5963;50.184;9.162;2023-02-28T15:44:41;3.90;99.90
11812;DHT22;5963;50.184;9.162;2023-02-28T15:47:18;3.90;99.90
11812;DHT22;5963;50.184;9.162;2023-02-28T15:49:51;4.00;99.90
11812;DHT22;5963;50.184;9.162;2023-02-28T15:52:26;3.90;99.90
11812;DHT22;5963;50.184;9.162;2023-02-28T15:54:57;3.90;99.90
11812;DHT22;5963;50.184;9.162;2023-02-28T15:57:31;3.90;99.90
11812;DHT22;5963;50.184;9.162;2023-02-28T16:00:05;3.90;99.90
11812;DHT22;5963;50.184;9.162;2023-02-28T16:02:38;3.80;99.90
11812;DHT22;5963;50.184;9.162;2023-02-28T16:05:23;3.70;99.90
11812;DHT22;5963;50.184;9.162;2023-02-28T16:08:10;3.80;99.90
11812;DHT22;5963;50.184;9.162;2023-02-28T16:10:45;3.90;99.90
11812;DHT22;5963;50.184;9.162;2023-02-28T16:13:17;4.00;99.90
11812;DHT22;5963;50.184;9.162;2023-02-28T16:15:49;4.00;99.90
11812;DHT22;5963;50.184;9.162;2023-02-28T16:18:21;3.90;99.90
11812;DHT22;5963;50.184;9.162;2023-02-28T16:20:56;3.90;99.90
11812;DHT22;5963;50.184;9.162;2023-02-28T16:23:35;3.70;99.90
11812;DHT22;5963;50.184;9.162;2023-02-28T16:26:10;3.80;99.90
11812;DHT22;5963;50.184;9.162;2023-02-28T16:31:52;3.70;99.90
11812;DHT22;5963;50.184;9.162;2023-02-28T16:34:39;3.60;99.90
11812;DHT22;5963;50.184;9.162;2023-02-28T16:37:15;3.60;99.90
11812;DHT22;5963;50.184;9.162;2023-02-28T16:39:47;3.60;99.90
11812;DHT22;5963;50.184;9.162;2023-02-28T16:42:25;3.60;99.90
11812;DHT22;5963;50.184;9.162;2023-02-28T16:44:58;3.50;99.90
11812;DHT22;5963;50.184;9.162;2023-02-28T16:47:31;3.50;99.90
11812;DHT22;5963;50.184;9.162;2023-02-28T16:50:01;3.30;99.90
11812;DHT22;5963;50.184;9.162;2023-02-28T16:52:31;3.10;99.90
11812;DHT22;5963;50.184;9.162;2023-02-28T16:55:18;3.00;99.90
11812;DHT22;5963;50.184;9.162;2023-02-28T16:57:53;2.90;99.90
11812;DHT22;5963;50.184;9.162;2023-02-28T17:00:32;2.90;99.90
11812;DHT22;5963;50.184;9.162;2023-02-28T17:03:04;2.90;99.90
11812;DHT22;5963;50.184;9.162;2023-02-28T17:05:38;2.70;99.90
11812;DHT22;5963;50.184;9.162;2023-02-28T17:08:08;2.50;99.90
11812;DHT22;5963;50.184;9.162;2023-02-28T17:10:42;2.50;99.90
11812;DHT22;5963;50.184;9.162;2023-02-28T17:13:12;2.10;99.90
11812;DHT22;5963;50.184;9.162;2023-02-28T17:15:52;1.90;99.90
11812;DHT22;5963;50.184;9.162;2023-02-28T17:18:24;1.90;99.90
11812;DHT22;5963;50.184;9.162;2023-02-28T17:21:08;1.90;99.90